IGO537 VOBL-VOHS
Flight info
| Callsign | IGO537 |
|---|---|
| Flight time | N/A |
| Altitude | 33000 |
| Route | LATID8A LATID Q22 SAKRO SARKA6 |
| Aircraft | A320/M-SDE3FGHIRWY/LB1 |
Departure
| Time | 2026-04-27 19:14 |
|---|---|
| Airport | Kempegowda International Airport Bengaluru (VOBL) |
Arrival
| Time | N/A |
|---|---|
| Airport | Rajiv Gandhi International Airport (VOHS) |
| Time | Latitude | Longitude | Altitude | Speed | Heading |
|---|---|---|---|---|---|
| 2026-04-27 18:52 | 13.20166 | 77.70875 | 3009 ft | 0 kts | 179° |
| 2026-04-27 19:03 | 13.20170 | 77.70875 | 3009 ft | 2 kts | 180° |
| 2026-04-27 19:03 | 13.20184 | 77.70875 | 3009 ft | 2 kts | 179° |
| 2026-04-27 19:03 | 13.20198 | 77.70875 | 3009 ft | 2 kts | 180° |
| 2026-04-27 19:03 | 13.20206 | 77.70875 | 3009 ft | 2 kts | 179° |
| 2026-04-27 19:04 | 13.20224 | 77.70876 | 3009 ft | 2 kts | 209° |
| 2026-04-27 19:04 | 13.20234 | 77.70884 | 3009 ft | 2 kts | 232° |
| 2026-04-27 19:04 | 13.20241 | 77.70898 | 3009 ft | 2 kts | 262° |
| 2026-04-27 19:04 | 13.20241 | 77.70912 | 3009 ft | 1 kts | 272° |
| 2026-04-27 19:05 | 13.20241 | 77.70920 | 3009 ft | 0 kts | 269° |
| 2026-04-27 19:05 | 13.20241 | 77.70921 | 3009 ft | 0 kts | 269° |
| 2026-04-27 19:07 | 13.20241 | 77.70920 | 3009 ft | 2 kts | 269° |
| 2026-04-27 19:07 | 13.20240 | 77.70873 | 3009 ft | 14 kts | 269° |
| 2026-04-27 19:08 | 13.20239 | 77.70765 | 3009 ft | 18 kts | 271° |
| 2026-04-27 19:08 | 13.20243 | 77.70647 | 3009 ft | 18 kts | 270° |
| 2026-04-27 19:08 | 13.20243 | 77.70531 | 3009 ft | 18 kts | 270° |
| 2026-04-27 19:08 | 13.20245 | 77.70442 | 3009 ft | 4 kts | 271° |
| 2026-04-27 19:09 | 13.20258 | 77.70411 | 3009 ft | 7 kts | 319° |
| 2026-04-27 19:09 | 13.20338 | 77.70393 | 3009 ft | 13 kts | 359° |
| 2026-04-27 19:09 | 13.20486 | 77.70391 | 3009 ft | 8 kts | 355° |
| 2026-04-27 19:09 | 13.20532 | 77.70306 | 3009 ft | 18 kts | 269° |
| 2026-04-27 19:10 | 13.20531 | 77.70115 | 3008 ft | 22 kts | 268° |
| 2026-04-27 19:10 | 13.20535 | 77.69922 | 3009 ft | 18 kts | 271° |
| 2026-04-27 19:10 | 13.20534 | 77.69800 | 3009 ft | 15 kts | 270° |
| 2026-04-27 19:10 | 13.20535 | 77.69721 | 3009 ft | 18 kts | 271° |
| 2026-04-27 19:11 | 13.20539 | 77.69497 | 3009 ft | 27 kts | 269° |
| 2026-04-27 19:11 | 13.20538 | 77.69289 | 3009 ft | 27 kts | 270° |
| 2026-04-27 19:11 | 13.20539 | 77.69102 | 3009 ft | 24 kts | 271° |
| 2026-04-27 19:11 | 13.20542 | 77.68938 | 3009 ft | 20 kts | 270° |
| 2026-04-27 19:12 | 13.20544 | 77.68797 | 3009 ft | 18 kts | 271° |
| 2026-04-27 19:12 | 13.20544 | 77.68689 | 3008 ft | 8 kts | 270° |
| 2026-04-27 19:12 | 13.20557 | 77.68632 | 3009 ft | 7 kts | 299° |
| 2026-04-27 19:12 | 13.20620 | 77.68614 | 3009 ft | 14 kts | 360° |
| 2026-04-27 19:13 | 13.20708 | 77.68636 | 3009 ft | 7 kts | 55° |
| 2026-04-27 19:13 | 13.20715 | 77.68704 | 3009 ft | 10 kts | 94° |
| 2026-04-27 19:13 | 13.20714 | 77.68903 | 3009 ft | 57 kts | 89° |
| 2026-04-27 19:13 | 13.20708 | 77.69542 | 3009 ft | 119 kts | 90° |
| 2026-04-27 19:14 | 13.20699 | 77.70591 | 3010 ft | 172 kts | 90° |
| 2026-04-27 19:14 | 13.20684 | 77.71890 | 3448 ft | 183 kts | 88° |
| 2026-04-27 19:14 | 13.20962 | 77.73123 | 4145 ft | 175 kts | 57° |
| 2026-04-27 19:14 | 13.21699 | 77.74088 | 4805 ft | 167 kts | 51° |
| 2026-04-27 19:15 | 13.22388 | 77.75084 | 5052 ft | 177 kts | 56° |
| 2026-04-27 19:15 | 13.23066 | 77.76215 | 5299 ft | 187 kts | 59° |
| 2026-04-27 19:15 | 13.23489 | 77.76981 | 5447 ft | 194 kts | 60° |